Terminal Aerodrome Forecast
Issued by NWS

Home | Current Version | Previous Version | Text Only | Print | Product List | Glossary On
Versions: 1 2 3 4 5 6 7 8 9 10 11 12 13 14
000
FTUS42 KMHX 250537
TAFOAJ
TAF
KOAJ 250537Z 2506/2606 00000KT 4SM BR SCT009
      TEMPO 2507/2510 3/4SM BR BKN009
     FM251000 00000KT 1SM BR BKN007
     FM251230 21005KT P6SM SCT250
     FM251800 21011G20KT P6SM SCT150
     FM260100 25009KT P6SM SCT200
     FM260300 30009KT P6SM FEW250
      AMD LTD TO CLD VIS AND WIND=

USA.gov is the U.S. government's official web portal to all federal, state and local government web resources and services.